This is the latest recevied weather packets stored in our database for station/object W0AKY-13. If no packets are shown the sender has not sent any weather packets the latest 1 day(s).
| Time | Temp. | Humidity | Pressure | Rain* | Wind** | Luminosity | Snow |
|---|---|---|---|---|---|---|---|
| 1778053966 | 7.78° C | 58% | 1017.3 hPa | 0 mm | - | 0 W/m² | - |
| 1778053663 | 8.33° C | 57% | 1017 hPa | 0 mm | - | 0 W/m² | - |
| 1778053360 | 8.33° C | 58% | 1017 hPa | 0 mm | - | 0 W/m² | - |
| 1778053058 | 8.33° C | 57% | 1017.1 hPa | 0 mm | - | 0 W/m² | - |
| 1778052755 | 8.33° C | 57% | 1017 hPa | 0 mm | - | 0 W/m² | - |
| 1778052452 | 7.78° C | 58% | 1016.9 hPa | 0 mm | - | 0 W/m² | - |
| 1778051847 | 7.22° C | 65% | 1017.1 hPa | 0 mm | - | 0 W/m² | - |
| 1778051545 | 7.22° C | 74% | 1016.7 hPa | 0 mm | - | 0 W/m² | - |
| 1778050938 | 7.22° C | 74% | 1016.7 hPa | 0 mm | - | 0 W/m² | - |
| 1778050332 | 7.22° C | 70% | 1016.9 hPa | 0 mm | - | 0 W/m² | - |
| 1778048509 | 7.78° C | 67% | 1017.1 hPa | 0 mm | - | 0 W/m² | - |
| 1778048204 | 7.78° C | 69% | 1017 hPa | 0 mm | - | 0 W/m² | - |
| 1778047596 | 7.78° C | 64% | 1016.8 hPa | 0 mm | - | 0 W/m² | - |
| 1778046686 | 7.78° C | 64% | 1017 hPa | 0 mm | - | 0 W/m² | - |
| 1778046383 | 7.78° C | 62% | 1016.9 hPa | 0 mm | - | 0 W/m² | - |
| 1778046079 | 7.78° C | 66% | 1016.7 hPa | 0 mm | - | 0 W/m² | - |
| 1778044871 | 8.33° C | 62% | 1016.8 hPa | 0 mm | - | 0 W/m² | - |
| 1778044264 | 8.89° C | 61% | 1016.8 hPa | 0 mm | - | 0 W/m² | - |
| 1778043356 | 8.89° C | 60% | 1016.6 hPa | 0 mm | - | 0 W/m² | - |
| 1778042751 | 8.89° C | 58% | 1016.6 hPa | 0 mm | - | 0 W/m² | - |
| 1778042447 | 8.89° C | 55% | 1016.6 hPa | 0 mm | - | 0 W/m² | - |
| 1778042144 | 9.44° C | 54% | 1016.4 hPa | 0 mm | - | 0 W/m² | - |
| 1778041239 | 10° C | 47% | 1016.4 hPa | 0 mm | - | 0 W/m² | - |
| 1778040332 | 10° C | 47% | 1016.1 hPa | 0 mm | - | 0 W/m² | - |
| 1778040027 | 10° C | 45% | 1016 hPa | 0 mm | - | 0 W/m² | - |
* Rain latest hour (hover to see other rain measurements)
** Current wind speed in m/s (hover to see current wind gust speed)